Aviation Digital Data Service (ADDS)

Output produced by METARs form (1932 UTC 17 February 2018)
found at http://aviationweather.gov/adds/metars/
 
KJXN 171745Z 1718/1818 22010KT P6SM BKN100 
     TEMPO 1718/1720 BKN025 
     FM180000 23009KT 6SM -SN OVC050 
     FM180200 24010KT 5SM -SN BR OVC030 
     FM180400 25008KT P6SM OVC015 
     FM181000 26004KT P6SM BKN040 
     FM181400 20008KT P6SM BKN150